Terminal Aerodrome Forecast
Issued by NWS

Current Version | Previous Version | Text Only | Print | Product List | Glossary Off
Versions: 1 2 3 4 5 6 7 8 9 10 11 12 13 14 15 16 17 18 19 20 21

000
FTUS41 KILN 180900 AAA
TAFLCK
TAF AMD
KLCK 180939Z 1810/1906 06004KT 5SM HZ BKN050
     FM181300 07004KT 4SM BR OVC025
     FM181700 09004KT P6SM VCSH BKN040
     FM182200 VRB04KT P6SM BKN100=

USA.gov is the U.S. government's official web portal to all federal, state and local government web resources and services.